sensor_id;sensor_type;location;lat;lon;timestamp;pressure;altitude;pressure_sealevel;temperature;humidity
19674;BME280;9986;50.610;7.230;2023-08-17T00:03:11;34131.60;;;20.23;100.00
19674;BME280;9986;50.610;7.230;2023-08-17T00:21:48;-4784.14;;;20.04;100.00
19674;BME280;9986;50.610;7.230;2023-08-17T00:27:05;-2790.96;;;20.22;100.00
19674;BME280;9986;50.610;7.230;2023-08-17T00:45:48;1698.83;;;20.31;100.00
19674;BME280;9986;50.610;7.230;2023-08-17T00:51:01;-1794.10;;;20.20;100.00
19674;BME280;9986;50.610;7.230;2023-08-17T00:56:10;5195.29;;;20.34;100.00
19674;BME280;9986;50.610;7.230;2023-08-17T01:01:25;1864.18;;;20.22;100.00
19674;BME280;9986;50.610;7.230;2023-08-17T01:09:24;-14397.62;;;20.07;100.00
19674;BME280;9986;50.610;7.230;2023-08-17T01:31:00;-2790.23;;;20.41;100.00
19674;BME280;9986;50.610;7.230;2023-08-17T01:44:33;1033.85;;;20.36;100.00
19674;BME280;9986;50.610;7.230;2023-08-17T02:03:20;4364.95;;;20.49;100.00
19674;BME280;9986;50.610;7.230;2023-08-17T02:11:13;15045.70;;;20.58;100.00
19674;BME280;9986;50.610;7.230;2023-08-17T02:16:23;17555.92;;;20.64;100.00
19674;BME280;9986;50.610;7.230;2023-08-17T02:21:37;18392.61;;;20.64;100.00
19674;BME280;9986;50.610;7.230;2023-08-17T02:37:32;16217.95;;;20.64;100.00
19674;BME280;9986;50.610;7.230;2023-08-17T03:04:08;9201.57;;;20.60;100.00
19674;BME280;9986;50.610;7.230;2023-08-17T03:17:27;15549.34;;;20.64;100.00
19674;BME280;9986;50.610;7.230;2023-08-17T03:30:50;1201.69;;;20.50;100.00
19674;BME280;9986;50.610;7.230;2023-08-17T03:36:02;-1459.85;;;20.51;100.00
19674;BME280;9986;50.610;7.230;2023-08-17T03:41:15;1867.94;;;20.55;100.00
19674;BME280;9986;50.610;7.230;2023-08-17T04:05:21;2366.80;;;20.50;100.00
19674;BME280;9986;50.610;7.230;2023-08-17T04:32:18;1867.64;;;20.52;100.00
19674;BME280;9986;50.610;7.230;2023-08-17T04:37:32;1534.37;;;20.49;100.00
19674;BME280;9986;50.610;7.230;2023-08-17T04:45:26;-1293.50;;;20.52;100.00
19674;BME280;9986;50.610;7.230;2023-08-17T04:50:39;4200.14;;;20.61;100.00
19674;BME280;9986;50.610;7.230;2023-08-17T04:55:55;8201.08;;;20.62;100.00
19674;BME280;9986;50.610;7.230;2023-08-17T05:03:49;13209.51;;;20.64;100.00
19674;BME280;9986;50.610;7.230;2023-08-17T05:09:03;13710.88;;;20.64;100.00
19674;BME280;9986;50.610;7.230;2023-08-17T05:19:40;15048.17;;;20.65;100.00
19674;BME280;9986;50.610;7.230;2023-08-17T05:35:40;23919.80;;;20.66;100.00
19674;BME280;9986;50.610;7.230;2023-08-17T05:40:58;26268.93;;;20.70;100.00
19674;BME280;9986;50.610;7.230;2023-08-17T05:48:59;25431.61;;;20.72;100.00
19674;BME280;9986;50.610;7.230;2023-08-17T05:54:12;24257.92;;;20.72;100.00
19674;BME280;9986;50.610;7.230;2023-08-17T05:59:26;22412.14;;;20.67;100.00
19674;BME280;9986;50.610;7.230;2023-08-17T06:04:36;21903.17;;;20.53;100.00
19674;BME280;9986;50.610;7.230;2023-08-17T07:01:43;25730.18;;;19.99;100.00
19674;BME280;9986;50.610;7.230;2023-08-17T07:06:55;24554.61;;;19.93;100.00
19674;BME280;9986;50.610;7.230;2023-08-17T07:33:46;33100.28;;;19.85;100.00
19674;BME280;9986;50.610;7.230;2023-08-17T07:47:01;29251.29;;;20.02;100.00
19674;BME280;9986;50.610;7.230;2023-08-17T07:52:15;23560.21;;;20.14;100.00
19674;BME280;9986;50.610;7.230;2023-08-17T08:14:07;42893.26;;;20.41;100.00
19674;BME280;9986;50.610;7.230;2023-08-17T08:37:15;61196.73;;;20.93;100.00
19674;BME280;9986;50.610;7.230;2023-08-17T08:45:10;104534.16;;;20.93;100.00
19674;BME280;9986;50.610;7.230;2023-08-17T09:01:05;111825.14;;;21.30;100.00
19674;BME280;9986;50.610;7.230;2023-08-17T09:24:51;148238.59;;;21.60;100.00
19674;BME280;9986;50.610;7.230;2023-08-17T09:32:48;148227.11;;;21.55;100.00
19674;BME280;9986;50.610;7.230;2023-08-17T09:40:39;148197.89;;;21.44;100.00
19674;BME280;9986;50.610;7.230;2023-08-17T09:54:07;148340.22;;;21.99;100.00
19674;BME280;9986;50.610;7.230;2023-08-17T10:04:52;148363.06;;;22.08;100.00
19674;BME280;9986;50.610;7.230;2023-08-17T10:28:59;148500.38;;;22.62;100.00
19674;BME280;9986;50.610;7.230;2023-08-17T10:36:52;148548.72;;;22.81;100.00
19674;BME280;9986;50.610;7.230;2023-08-17T10:44:54;148520.75;;;22.70;100.00
19674;BME280;9986;50.610;7.230;2023-08-17T10:50:19;148525.84;;;22.72;100.00
19674;BME280;9986;50.610;7.230;2023-08-17T10:58:19;148575.44;;;22.91;100.00
19674;BME280;9986;50.610;7.230;2023-08-17T11:03:35;148570.34;;;22.89;100.00
19674;BME280;9986;50.610;7.230;2023-08-17T11:11:36;148593.20;;;22.98;100.00
19674;BME280;9986;50.610;7.230;2023-08-17T11:16:49;148613.58;;;23.06;100.00
19674;BME280;9986;50.610;7.230;2023-08-17T11:22:00;148621.22;;;23.09;100.00
19674;BME280;9986;50.610;7.230;2023-08-17T11:27:13;148647.95;;;23.20;100.00
19674;BME280;9986;50.610;7.230;2023-08-17T11:37:42;148674.67;;;23.30;100.00
19674;BME280;9986;50.610;7.230;2023-08-17T11:48:16;148743.37;;;23.57;100.00
19674;BME280;9986;50.610;7.230;2023-08-17T11:56:21;148754.81;;;23.62;100.00
19674;BME280;9986;50.610;7.230;2023-08-17T12:06:54;148787.89;;;23.74;100.00
19674;BME280;9986;50.610;7.230;2023-08-17T12:17:27;148749.72;;;23.60;100.00
19674;BME280;9986;50.610;7.230;2023-08-17T12:36:22;148943.19;;;24.35;100.00
19674;BME280;9986;50.610;7.230;2023-08-17T12:46:59;148966.09;;;24.44;100.00
19674;BME280;9986;50.610;7.230;2023-08-17T13:19:33;149034.91;;;24.71;100.00
19674;BME280;9986;50.610;7.230;2023-08-17T13:24:46;149082.02;;;24.89;100.00
19674;BME280;9986;50.610;7.230;2023-08-17T13:32:42;149152.16;;;25.17;100.00
19674;BME280;9986;50.610;7.230;2023-08-17T13:37:55;149149.59;;;25.16;100.00
19674;BME280;9986;50.610;7.230;2023-08-17T13:43:10;149106.22;;;24.99;100.00
19674;BME280;9986;50.610;7.230;2023-08-17T13:56:31;149333.13;;;25.87;100.00
19674;BME280;9986;50.610;7.230;2023-08-17T14:04:25;149435.11;;;26.27;100.00
19674;BME280;9986;50.610;7.230;2023-08-17T14:09:38;149330.56;;;25.86;100.00
19674;BME280;9986;50.610;7.230;2023-08-17T14:17:35;149450.44;;;26.33;100.00
19674;BME280;9986;50.610;7.230;2023-08-17T14:25:37;149616.28;;;26.98;100.00
19674;BME280;9986;50.610;7.230;2023-08-17T14:33:38;149594.59;;;26.89;100.00
19674;BME280;9986;50.610;7.230;2023-08-17T14:41:30;149761.83;;;27.54;100.00
19674;BME280;9986;50.610;7.230;2023-08-17T14:52:05;149884.41;;;28.02;100.00
19674;BME280;9986;50.610;7.230;2023-08-17T15:02:43;149957.22;;;28.31;100.00
19674;BME280;9986;50.610;7.230;2023-08-17T15:18:44;149641.84;;;27.08;100.00
19674;BME280;9986;50.610;7.230;2023-08-17T15:26:36;149653.31;;;27.12;100.00
19674;BME280;9986;50.610;7.230;2023-08-17T15:39:51;149525.72;;;26.62;100.00
19674;BME280;9986;50.610;7.230;2023-08-17T15:45:05;149560.17;;;26.76;100.00
19674;BME280;9986;50.610;7.230;2023-08-17T15:55:35;149634.17;;;27.05;100.00
19674;BME280;9986;50.610;7.230;2023-08-17T16:06:09;149775.86;;;27.60;100.00
19674;BME280;9986;50.610;7.230;2023-08-17T16:16:47;149563.98;;;26.77;100.00
19674;BME280;9986;50.610;7.230;2023-08-17T16:30:01;149709.50;;;27.34;100.00
19674;BME280;9986;50.610;7.230;2023-08-17T16:38:01;149657.17;;;27.14;100.00
19674;BME280;9986;50.610;7.230;2023-08-17T16:59:32;149544.84;;;26.70;100.00
19674;BME280;9986;50.610;7.230;2023-08-17T17:04:43;149432.55;;;26.26;100.00
19674;BME280;9986;50.610;7.230;2023-08-17T17:12:35;149524.45;;;26.62;100.00
19674;BME280;9986;50.610;7.230;2023-08-17T17:17:46;149389.25;;;26.09;100.00
19674;BME280;9986;50.610;7.230;2023-08-17T17:28:14;149231.11;;;25.48;100.00
19674;BME280;9986;50.610;7.230;2023-08-17T17:36:07;149134.25;;;25.10;100.00
19674;BME280;9986;50.610;7.230;2023-08-17T17:52:17;149060.41;;;24.81;100.00
19674;BME280;9986;50.610;7.230;2023-08-17T17:57:31;149022.19;;;24.66;100.00
19674;BME280;9986;50.610;7.230;2023-08-17T18:10:46;148920.30;;;24.26;100.00
19674;BME280;9986;50.610;7.230;2023-08-17T18:15:56;148864.25;;;24.04;100.00
19674;BME280;9986;50.610;7.230;2023-08-17T18:23:46;148849.00;;;23.98;100.00
19674;BME280;9986;50.610;7.230;2023-08-17T18:28:59;148772.59;;;23.68;100.00
19674;BME280;9986;50.610;7.230;2023-08-17T18:39:40;148822.27;;;23.88;100.00
19674;BME280;9986;50.610;7.230;2023-08-17T18:44:56;148696.25;;;23.39;100.00
19674;BME280;9986;50.610;7.230;2023-08-17T18:52:49;148710.28;;;23.44;100.00
19674;BME280;9986;50.610;7.230;2023-08-17T18:58:02;148693.70;;;23.38;100.00
19674;BME280;9986;50.610;7.230;2023-08-17T19:03:15;148668.28;;;23.28;100.00
19674;BME280;9986;50.610;7.230;2023-08-17T19:11:18;148575.44;;;22.91;100.00
19674;BME280;9986;50.610;7.230;2023-08-17T19:16:34;148602.09;;;23.02;100.00
19674;BME280;9986;50.610;7.230;2023-08-17T19:21:47;148544.88;;;22.79;100.00
19674;BME280;9986;50.610;7.230;2023-08-17T19:37:41;148546.16;;;22.80;100.00
19674;BME280;9986;50.610;7.230;2023-08-17T19:42:55;148561.41;;;22.86;100.00
19674;BME280;9986;50.610;7.230;2023-08-17T19:53:33;148462.23;;;22.47;100.00
19674;BME280;9986;50.610;7.230;2023-08-17T19:58:45;148439.38;;;22.38;100.00
19674;BME280;9986;50.610;7.230;2023-08-17T20:03:58;148424.16;;;22.32;100.00
19674;BME280;9986;50.610;7.230;2023-08-17T20:25:20;148323.70;;;21.93;100.00
19674;BME280;9986;50.610;7.230;2023-08-17T20:35:56;148391.06;;;22.19;100.00
19674;BME280;9986;50.610;7.230;2023-08-17T20:51:55;148385.97;;;22.17;100.00
19674;BME280;9986;50.610;7.230;2023-08-17T20:57:08;148356.73;;;22.06;100.00
19674;BME280;9986;50.610;7.230;2023-08-17T21:04:59;148299.55;;;21.83;100.00
19674;BME280;9986;50.610;7.230;2023-08-17T21:10:12;148256.41;;;21.67;100.00
19674;BME280;9986;50.610;7.230;2023-08-17T21:18:07;148274.16;;;21.73;100.00
19674;BME280;9986;50.610;7.230;2023-08-17T21:28:46;137945.92;;;21.42;100.00
19674;BME280;9986;50.610;7.230;2023-08-17T21:52:37;148219.48;;;21.52;100.00
19674;BME280;9986;50.610;7.230;2023-08-17T22:03:16;148213.16;;;21.50;100.00
19674;BME280;9986;50.610;7.230;2023-08-17T22:08:29;148135.70;;;21.19;100.00
19674;BME280;9986;50.610;7.230;2023-08-17T22:16:29;108837.64;;;20.97;100.00
19674;BME280;9986;50.610;7.230;2023-08-17T22:21:42;148121.73;;;21.14;100.00
19674;BME280;9986;50.610;7.230;2023-08-17T22:26:55;130731.73;;;20.94;100.00
19674;BME280;9986;50.610;7.230;2023-08-17T22:32:09;134902.00;;;21.01;100.00
19674;BME280;9986;50.610;7.230;2023-08-17T22:42:41;148112.81;;;21.10;100.00
19674;BME280;9986;50.610;7.230;2023-08-17T22:50:26;148086.19;;;21.00;100.00
19674;BME280;9986;50.610;7.230;2023-08-17T23:32:57;137916.81;;;20.57;100.00
19674;BME280;9986;50.610;7.230;2023-08-17T23:51:29;93420.10;;;20.05;100.00
